Time;durP1;ratioP1;P1;durP2;ratioP2;P2;SDS_P1;SDS_P2;PMS_P1;PMS_P2;Temp;Humidity;BMP_temperature;BMP_pressure;BME280_temperature;BME280_humidity;BME280_pressure;Samples;Min_cycle;Max_cycle;Signal;HPM_P1;HPM_P2
2022/11/24 04:49:46;;;;;;;59.10;25.45;;;;;;;3.44;100.00;99461.78;5884789;27;20127;-84
2022/11/24 04:52:49;;;;;;;62.42;27.33;;;;;;;3.39;100.00;99464.94;5329652;33;32726;-84
2022/11/24 04:55:52;;;;;;;59.90;25.27;;;;;;;3.40;100.00;99466.59;5342892;33;33864;-84
2022/11/24 04:58:54;;;;;;;62.67;26.52;;;;;;;3.39;100.00;99472.91;5343763;33;33826;-84
2022/11/24 05:01:57;;;;;;;58.63;25.30;;;;;;;3.41;100.00;99476.25;5342786;33;33749;-84
2022/11/24 05:05:00;;;;;;;56.20;24.23;;;;;;;3.40;100.00;99482.56;5342817;33;34227;-84
2022/11/24 05:08:03;;;;;;;57.92;24.65;;;;;;;3.32;100.00;99481.66;5342984;33;34439;-84
2022/11/24 05:11:06;;;;;;;58.38;23.83;;;;;;;3.37;100.00;99488.19;5343196;33;33524;-84
2022/11/24 05:14:09;;;;;;;60.50;24.10;;;;;;;3.33;100.00;99505.44;5342766;33;34629;-84
2022/11/24 05:17:11;;;;;;;57.28;26.40;;;;;;;3.37;100.00;99498.84;5342757;33;34325;-84
2022/11/24 05:20:14;;;;;;;56.88;25.67;;;;;;;3.31;100.00;99504.78;5342604;33;33984;-84
2022/11/24 05:23:17;;;;;;;64.65;24.55;;;;;;;3.37;100.00;99503.31;5342511;33;35148;-84
2022/11/24 05:26:19;;;;;;;65.53;24.10;;;;;;;3.41;100.00;99512.66;5329168;33;33404;-84
2022/11/24 05:29:22;;;;;;;62.03;25.02;;;;;;;3.45;100.00;99519.34;5342411;33;34257;-84
2022/11/24 05:32:25;;;;;;;61.03;25.80;;;;;;;3.54;100.00;99515.78;5342614;33;33535;-84
2022/11/24 05:35:27;;;;;;;56.40;23.48;;;;;;;3.51;100.00;99517.88;5342883;33;34012;-84
2022/11/24 05:38:30;;;;;;;58.30;23.08;;;;;;;3.53;100.00;99510.59;5341362;33;33920;-84
2022/11/24 05:41:33;;;;;;;59.20;24.02;;;;;;;3.56;100.00;99521.75;5342863;33;34640;-84
2022/11/24 05:44:36;;;;;;;54.75;23.52;;;;;;;3.58;100.00;99527.78;5343393;33;34469;-88
2022/11/24 05:47:40;;;;;;;58.67;23.25;;;;;;;3.62;100.00;99521.16;5353023;33;33851;-88
2022/11/24 05:50:42;;;;;;;53.03;22.45;;;;;;;3.70;100.00;99528.37;5352216;33;33456;-88
2022/11/24 05:53:45;;;;;;;53.35;23.23;;;;;;;3.70;100.00;99535.53;5354084;33;35325;-89
2022/11/24 05:56:48;;;;;;;54.10;22.10;;;;;;;3.78;100.00;99532.94;5352335;33;34060;-85
2022/11/24 05:59:50;;;;;;;53.03;22.27;;;;;;;3.79;100.00;99543.41;5343221;33;35104;-85
2022/11/24 06:02:53;;;;;;;51.88;22.42;;;;;;;3.81;100.00;99544.09;5329235;33;33444;-85
2022/11/24 06:05:56;;;;;;;58.60;22.23;;;;;;;3.80;100.00;99541.56;5343142;33;35254;-84
2022/11/24 06:08:59;;;;;;;51.50;22.27;;;;;;;3.85;100.00;99541.94;5342672;33;34235;-84
2022/11/24 06:12:02;;;;;;;54.10;22.73;;;;;;;3.82;100.00;99552.91;5344223;33;33816;-84
2022/11/24 06:15:05;;;;;;;49.38;21.12;;;;;;;3.83;100.00;99550.13;5348701;33;33251;-84
2022/11/24 06:18:08;;;;;;;51.47;21.92;;;;;;;3.82;100.00;99556.41;5351416;33;33971;-84
2022/11/24 06:21:11;;;;;;;43.53;20.00;;;;;;;3.86;100.00;99563.12;5336508;33;32167;-84
2022/11/24 06:24:14;;;;;;;47.47;20.83;;;;;;;3.90;100.00;99560.97;5351143;33;33545;-84
2022/11/24 06:27:17;;;;;;;48.20;22.02;;;;;;;3.97;100.00;99564.66;5345753;33;34381;-84
2022/11/24 06:30:20;;;;;;;51.15;20.67;;;;;;;3.90;100.00;99568.97;5351582;33;33792;-84
2022/11/24 06:33:22;;;;;;;47.47;19.67;;;;;;;3.97;100.00;99571.84;5349700;33;34097;-84
2022/11/24 06:36:25;;;;;;;51.65;20.83;;;;;;;3.91;100.00;99578.59;5344854;33;33679;-84
2022/11/24 06:39:28;;;;;;;49.80;20.92;;;;;;;3.98;100.00;99584.16;5329880;33;32997;-84
2022/11/24 06:42:31;;;;;;;46.40;21.67;;;;;;;4.01;100.00;99581.19;5343047;33;34592;-85
2022/11/24 06:45:34;;;;;;;47.90;20.12;;;;;;;4.01;100.00;99586.53;5343099;33;33362;-85
2022/11/24 06:48:37;;;;;;;51.60;20.30;;;;;;;4.06;100.00;99585.03;5342074;33;33584;-84
2022/11/24 06:51:41;;;;;;;47.88;19.48;;;;;;;4.06;100.00;99595.69;5328967;33;32102;-85
2022/11/24 06:54:44;;;;;;;45.08;20.17;;;;;;;4.10;100.00;99588.25;5325137;33;34724;-84
2022/11/24 06:57:46;;;;;;;43.38;18.80;;;;;;;4.12;100.00;99594.25;5342293;33;170944;-84
2022/11/24 07:00:49;;;;;;;43.47;19.85;;;;;;;4.14;100.00;99600.25;5336258;33;33905;-85
2022/11/24 07:03:53;;;;;;;40.72;16.92;;;;;;;4.18;100.00;99598.94;5315845;33;33797;-85
2022/11/24 07:06:56;;;;;;;40.50;17.77;;;;;;;4.22;100.00;99610.97;5333599;33;34622;-84
2022/11/24 07:09:59;;;;;;;48.90;18.92;;;;;;;4.23;100.00;99620.63;5329361;33;32106;-85
2022/11/24 07:13:06;;;;;;;44.72;18.90;;;;;;;4.21;100.00;99608.44;5321503;33;32822;-85
2022/11/24 07:16:14;;;;;;;45.50;19.40;;;;;;;4.22;100.00;99621.63;5328129;33;33471;-84
2022/11/24 07:19:32;;;;;;;50.95;19.52;;;;;;;4.29;100.00;99628.00;5324348;33;34235;-84
2022/11/24 07:22:35;;;;;;;44.83;20.12;;;;;;;4.30;100.00;99628.88;5313389;33;32220;-84
2022/11/24 07:25:38;;;;;;;45.78;19.62;;;;;;;4.30;100.00;99632.34;5323594;33;35036;-84
2022/11/24 07:28:41;;;;;;;44.58;18.48;;;;;;;4.30;100.00;99632.34;5323714;33;34577;-84
2022/11/24 07:31:44;;;;;;;41.80;19.17;;;;;;;4.41;100.00;99641.91;5325499;33;35204;-84
2022/11/24 07:34:47;;;;;;;42.40;17.77;;;;;;;4.37;100.00;99640.56;5340183;33;34978;-84
2022/11/24 07:37:54;;;;;;;44.50;20.80;;;;;;;4.49;100.00;99649.97;5326213;33;33463;-84
2022/11/24 07:41:04;;;;;;;43.00;18.92;;;;;;;4.53;100.00;99650.47;5339388;33;33702;-84
2022/11/24 07:44:07;;;;;;;46.42;18.37;;;;;;;4.57;100.00;99651.03;5323566;33;33876;-84
2022/11/24 07:47:10;;;;;;;41.10;17.70;;;;;;;4.65;100.00;99638.56;5310419;33;34241;-89
2022/11/24 07:50:13;;;;;;;46.25;18.58;;;;;;;4.65;100.00;99645.72;5334152;33;34110;-88
2022/11/24 07:53:16;;;;;;;43.38;17.87;;;;;;;4.64;100.00;99652.06;5329505;33;33496;-89
2022/11/24 07:56:19;;;;;;;40.47;17.67;;;;;;;4.65;100.00;99653.72;5336010;33;34760;-89
2022/11/24 07:59:21;;;;;;;44.95;18.98;;;;;;;4.67;100.00;99659.72;5331446;33;34178;-85
2022/11/24 08:02:24;;;;;;;41.33;18.62;;;;;;;4.69;100.00;99655.91;5340118;33;33871;-84
2022/11/24 08:05:27;;;;;;;45.50;18.77;;;;;;;4.73;100.00;99667.94;5319178;33;34017;-84
2022/11/24 08:08:32;;;;;;;46.78;18.95;;;;;;;4.75;100.00;99671.28;5336831;33;34053;-84
2022/11/24 08:11:35;;;;;;;49.35;19.87;;;;;;;4.73;100.00;99672.44;5333215;33;34208;-85
2022/11/24 08:14:38;;;;;;;44.95;18.77;;;;;;;4.72;100.00;99668.09;5337034;33;34428;-84
2022/11/24 08:17:40;;;;;;;49.50;18.62;;;;;;;4.75;100.00;99671.28;5346251;33;34324;-84
2022/11/24 08:20:43;;;;;;;44.85;18.85;;;;;;;4.80;100.00;99680.63;5345736;33;35705;-83
2022/11/24 08:23:46;;;;;;;41.85;18.95;;;;;;;4.86;100.00;99680.03;5347852;33;34547;-86
2022/11/24 08:26:48;;;;;;;41.50;18.90;;;;;;;4.87;100.00;99690.50;5347507;33;34013;-84
2022/11/24 08:29:52;;;;;;;47.80;20.75;;;;;;;4.93;100.00;99683.72;5327309;33;32687;-85
2022/11/24 08:32:57;;;;;;;46.37;19.45;;;;;;;4.94;100.00;99683.56;5348924;33;33778;-84
2022/11/24 08:36:22;;;;;;;43.97;20.60;;;;;;;4.90;100.00;99687.53;5350548;33;33741;-83
2022/11/24 08:39:24;;;;;;;48.53;20.62;;;;;;;4.98;100.00;99692.09;5351690;33;34643;-83
2022/11/24 08:42:27;;;;;;;50.42;21.05;;;;;;;5.03;100.00;99689.78;5354678;33;35183;-83
2022/11/24 08:45:30;;;;;;;46.17;19.98;;;;;;;5.05;100.00;99693.09;5330791;33;32257;-83
2022/11/24 08:48:38;;;;;;;49.42;21.08;;;;;;;5.08;100.00;99707.97;5344467;33;34017;-83
2022/11/24 08:51:42;;;;;;;50.95;20.80;;;;;;;5.07;100.00;99704.47;5343913;33;33630;-83
2022/11/24 08:54:45;;;;;;;46.95;20.48;;;;;;;5.25;100.00;99711.56;5344038;33;34683;-83
2022/11/24 08:57:48;;;;;;;50.67;19.90;;;;;;;5.30;100.00;99718.09;5330852;33;32204;-83
2022/11/24 09:00:50;;;;;;;43.63;19.15;;;;;;;5.43;100.00;99720.31;5344104;33;33968;-83
2022/11/24 09:03:53;;;;;;;45.85;19.70;;;;;;;5.42;100.00;99715.97;5330393;33;32722;-83
2022/11/24 09:06:57;;;;;;;42.80;18.75;;;;;;;5.54;100.00;99719.19;5330740;33;32490;-83
2022/11/24 09:09:59;;;;;;;47.62;20.00;;;;;;;5.58;100.00;99709.84;5343445;33;34695;-83
2022/11/24 09:13:03;;;;;;;51.63;21.00;;;;;;;5.57;100.00;99708.19;5343253;33;33657;-83
2022/11/24 09:16:09;;;;;;;46.25;20.00;;;;;;;5.49;100.00;99714.31;5343127;33;33544;-83
2022/11/24 09:19:12;;;;;;;44.70;19.98;;;;;;;5.46;100.00;99720.81;5333736;33;32341;-83
2022/11/24 09:22:15;;;;;;;47.88;19.70;;;;;;;5.42;100.00;99718.63;5351264;33;34038;-83
2022/11/24 09:25:17;;;;;;;47.25;20.77;;;;;;;5.50;100.00;99724.03;5343091;33;34654;-83
2022/11/24 09:28:20;;;;;;;42.80;20.05;;;;;;;5.57;100.00;99725.03;5343273;33;34524;-83
2022/11/24 09:31:25;;;;;;;43.42;18.23;;;;;;;5.52;100.00;99727.34;5343039;33;33507;-83
2022/11/24 09:34:28;;;;;;;44.85;19.00;;;;;;;5.72;100.00;99730.59;5343216;33;33376;-83
2022/11/24 09:37:31;;;;;;;45.22;19.77;;;;;;;5.88;100.00;99737.81;5343068;33;33573;-84
2022/11/24 09:40:34;;;;;;;47.00;18.98;;;;;;;5.92;100.00;99728.47;5342779;33;33711;-83
2022/11/24 09:44:02;;;;;;;44.22;19.92;;;;;;;6.19;100.00;99727.37;5342621;33;33860;-83
2022/11/24 09:47:07;;;;;;;38.08;18.08;;;;;;;6.53;100.00;99719.19;5329557;33;33097;-84
2022/11/24 09:50:19;;;;;;;43.30;21.10;;;;;;;6.67;100.00;99716.84;5342734;33;35165;-83
2022/11/24 09:53:35;;;;;;;45.97;18.10;;;;;;;6.82;99.21;99723.19;5343006;33;34309;-83
2022/11/24 09:56:40;;;;;;;41.75;18.33;;;;;;;6.72;98.98;99714.50;5342707;33;33431;-83
2022/11/24 09:59:43;;;;;;;43.22;18.83;;;;;;;6.56;99.18;99724.22;5323996;33;33516;-83
2022/11/24 10:02:48;;;;;;;41.75;18.27;;;;;;;6.44;100.00;99720.22;5326544;33;33619;-83
2022/11/24 10:05:51;;;;;;;46.03;19.25;;;;;;;6.53;99.78;99731.75;5324884;33;34595;-83
2022/11/24 10:09:03;;;;;;;45.22;18.65;;;;;;;6.31;100.00;99728.72;5324621;33;33923;-84
2022/11/24 10:12:35;;;;;;;41.03;17.67;;;;;;;6.13;100.00;99733.38;5324569;33;33633;-83
2022/11/24 10:15:51;;;;;;;41.10;18.08;;;;;;;6.04;100.00;99732.53;5325196;33;34350;-84
2022/11/24 10:19:26;;;;;;;37.65;18.30;;;;;;;5.94;100.00;99729.19;5329270;33;34197;-83
2022/11/24 10:22:44;;;;;;;42.67;19.02;;;;;;;5.84;100.00;99725.78;5328939;33;33524;-87
2022/11/24 10:25:57;;;;;;;36.05;16.55;;;;;;;5.83;100.00;99727.63;5312301;33;34089;-87
2022/11/24 10:29:05;;;;;;;37.38;17.30;;;;;;;5.77;100.00;99724.78;5314906;33;34105;-83
2022/11/24 10:32:17;;;;;;;42.53;19.40;;;;;;;5.75;100.00;99735.59;5310639;33;34781;-83
2022/11/24 10:35:44;;;;;;;35.22;16.52;;;;;;;5.68;100.00;99738.09;5318890;33;34510;-83
2022/11/24 10:38:55;;;;;;;39.72;17.45;;;;;;;5.74;100.00;99741.13;5327917;33;33940;-84
2022/11/24 10:42:02;;;;;;;43.38;18.75;;;;;;;5.86;100.00;99737.13;5326423;33;34383;-83
2022/11/24 10:45:18;;;;;;;37.17;16.52;;;;;;;5.85;100.00;99741.66;5319310;33;33938;-83
2022/11/24 10:48:25;;;;;;;34.90;16.67;;;;;;;6.03;100.00;99744.22;5313416;33;34035;-83
2022/11/24 10:52:06;;;;;;;41.47;17.75;;;;;;;6.08;100.00;99744.56;5318591;33;33637;-83
2022/11/24 10:55:09;;;;;;;36.58;17.08;;;;;;;6.17;100.00;99748.06;5250730;33;34194;-83
2022/11/24 10:58:15;;;;;;;38.92;17.58;;;;;;;6.16;100.00;99745.56;5262649;33;34530;-83
2022/11/24 11:01:31;;;;;;;39.38;17.08;;;;;;;6.23;100.00;99750.09;5303089;33;33377;-83
2022/11/24 11:04:35;;;;;;;38.35;16.80;;;;;;;6.21;100.00;99762.78;5317631;33;33395;-87
2022/11/24 11:07:37;;;;;;;39.53;17.25;;;;;;;6.28;100.00;99760.28;5310198;33;34037;-83
2022/11/24 11:10:42;;;;;;;33.72;16.23;;;;;;;6.39;100.00;99764.47;5306769;33;34488;-84
2022/11/24 11:13:54;;;;;;;33.40;15.75;;;;;;;6.47;100.00;99764.50;5317660;33;34020;-84
2022/11/24 11:17:26;;;;;;;33.22;16.08;;;;;;;6.55;100.00;99773.37;5318997;33;34684;-84
2022/11/24 11:20:31;;;;;;;35.80;16.70;;;;;;;6.66;100.00;99774.00;5307532;33;33991;-84
2022/11/24 11:23:35;;;;;;;35.33;16.33;;;;;;;6.58;100.00;99774.84;5315879;33;34345;-84
2022/11/24 11:26:38;;;;;;;31.98;14.98;;;;;;;6.71;100.00;99785.06;5302054;33;32521;-84
2022/11/24 11:29:41;;;;;;;31.87;14.98;;;;;;;6.73;100.00;99780.37;5316690;33;34593;-84
2022/11/24 11:33:20;;;;;;;29.27;15.63;;;;;;;6.76;99.90;99778.19;5312556;33;34566;-84
2022/11/24 11:36:50;;;;;;;32.47;16.05;;;;;;;6.89;100.00;99787.56;5323498;33;33870;-83
2022/11/24 11:39:54;;;;;;;32.75;14.68;;;;;;;6.91;99.78;99790.91;5319020;33;32278;-84
2022/11/24 11:43:01;;;;;;;33.58;16.08;;;;;;;7.06;98.76;99791.88;5320142;33;33851;-83
2022/11/24 11:46:15;;;;;;;28.15;14.30;;;;;;;7.06;98.13;99797.25;5302612;33;33050;-83
2022/11/24 11:49:18;;;;;;;29.15;14.52;;;;;;;7.26;96.80;99785.16;5329760;33;34464;-87
2022/11/24 11:52:56;;;;;;;31.25;16.08;;;;;;;7.26;96.79;99787.00;5320088;33;34240;-87
2022/11/24 11:56:20;;;;;;;30.35;14.45;;;;;;;7.31;96.41;99784.62;5333319;33;33331;-83
2022/11/24 11:59:54;;;;;;;29.27;14.18;;;;;;;7.41;95.49;99787.97;5342161;33;34847;-85
2022/11/24 12:03:27;;;;;;;25.27;12.77;;;;;;;7.53;96.30;99790.28;5330671;33;34664;-84
2022/11/24 12:06:51;;;;;;;27.40;13.65;;;;;;;7.39;94.42;99787.28;5328966;33;34870;-85
2022/11/24 12:09:57;;;;;;;26.05;13.30;;;;;;;7.65;93.95;99787.03;5339706;33;33922;-85
2022/11/24 12:13:23;;;;;;;27.23;14.20;;;;;;;8.02;91.00;99790.91;5334576;33;34238;-85
2022/11/24 12:16:51;;;;;;;25.05;12.50;;;;;;;8.22;90.00;99785.94;5337933;33;33788;-84
2022/11/24 12:20:16;;;;;;;26.98;12.93;;;;;;;9.16;86.62;99786.53;5341258;33;33987;-84
2022/11/24 12:23:56;;;;;;;27.42;13.32;;;;;;;10.14;78.28;99785.34;5354214;33;34474;-83
2022/11/24 12:26:59;;;;;;;26.37;13.20;;;;;;;10.11;78.67;99780.34;5342941;33;33960;-84
2022/11/24 12:30:11;;;;;;;22.27;12.40;;;;;;;9.33;82.15;99797.94;5330826;33;33565;-84
2022/11/24 12:34:11;;;;;;;21.98;10.95;;;;;;;8.44;87.33;99792.34;5316574;33;33619;-83
2022/11/24 12:37:16;;;;;;;25.50;13.25;;;;;;;7.81;88.98;99788.81;5269332;33;34591;-89
2022/11/24 12:40:37;;;;;;;29.10;12.68;;;;;;;7.44;90.85;99792.12;5282774;33;33613;-84
2022/11/24 12:43:54;;;;;;;22.48;11.55;;;;;;;7.23;93.63;99812.25;5317305;33;32355;-83
2022/11/24 12:47:59;;;;;;;22.00;11.05;;;;;;;7.07;96.57;99814.97;5339801;33;34484;-84
2022/11/24 12:51:05;;;;;;;26.08;12.23;;;;;;;7.39;93.55;99806.03;5297391;33;33902;-84
2022/11/24 12:54:19;;;;;;;25.27;12.65;;;;;;;7.40;94.13;99809.53;5342790;33;33809;-84
2022/11/24 12:57:32;;;;;;;21.17;10.95;;;;;;;7.08;96.01;99810.44;5327066;33;33826;-84
2022/11/24 13:00:45;;;;;;;22.20;11.50;;;;;;;6.87;97.10;99813.62;5324237;33;33426;-84
2022/11/24 13:03:57;;;;;;;24.90;13.02;;;;;;;6.76;98.55;99814.81;5328680;33;34522;-84
2022/11/24 13:07:09;;;;;;;25.88;11.05;;;;;;;6.70;100.00;99818.13;5342692;33;35238;-88
2022/11/24 13:10:24;;;;;;;23.45;12.27;;;;;;;6.74;100.00;99816.81;5343155;33;34765;-86
2022/11/24 13:13:58;;;;;;;20.88;10.68;;;;;;;6.70;100.00;99812.78;5312743;33;32764;-84
2022/11/24 13:17:20;;;;;;;22.83;11.02;;;;;;;6.81;100.00;99817.81;5333639;33;34572;-84
2022/11/24 13:20:43;;;;;;;24.10;11.45;;;;;;;6.89;99.31;99823.16;5335789;33;34520;-84
2022/11/24 13:23:59;;;;;;;25.48;12.88;;;;;;;6.95;100.00;99835.03;5334811;33;34268;-84
2022/11/24 13:27:14;;;;;;;24.23;10.95;;;;;;;6.98;97.89;99830.19;5334529;33;34050;-85
2022/11/24 13:30:32;;;;;;;21.73;10.73;;;;;;;6.97;99.20;99825.84;5330992;33;34164;-84
2022/11/24 13:33:36;;;;;;;21.08;10.48;;;;;;;6.94;98.71;99836.06;5324937;33;33639;-84
2022/11/24 13:36:51;;;;;;;20.70;10.43;;;;;;;7.07;98.53;99836.38;5324346;33;33773;-84
2022/11/24 13:40:06;;;;;;;28.33;12.90;;;;;;;7.12;97.84;99835.88;5320181;33;32591;-88
2022/11/24 13:43:09;;;;;;;21.55;11.12;;;;;;;7.18;96.97;99845.91;5322449;33;34257;-85
2022/11/24 13:46:53;;;;;;;23.10;11.85;;;;;;;7.23;97.60;99840.87;5325827;33;34190;-84
2022/11/24 13:50:04;;;;;;;24.83;11.10;;;;;;;7.14;97.85;99837.38;5327276;33;34989;-84
2022/11/24 13:53:44;;;;;;;20.83;10.80;;;;;;;7.23;98.25;99843.56;5333359;33;34311;-84
2022/11/24 13:56:46;;;;;;;24.92;10.60;;;;;;;7.18;98.54;99843.22;5333435;33;34230;-84
2022/11/24 13:59:49;;;;;;;23.27;10.63;;;;;;;7.19;98.73;99852.91;5324435;33;34498;-84
2022/11/24 14:02:56;;;;;;;19.58;11.10;;;;;;;7.21;99.54;99854.44;5325737;33;32340;-84
2022/11/24 14:06:01;;;;;;;23.67;12.25;;;;;;;7.20;98.55;99854.63;5337423;33;34270;-84
2022/11/24 14:09:33;;;;;;;26.30;12.13;;;;;;;7.15;99.05;99855.09;5329237;33;32136;-84
2022/11/24 14:12:36;;;;;;;26.05;11.45;;;;;;;7.11;98.75;99859.13;5325843;33;32926;-83
2022/11/24 14:15:39;;;;;;;24.58;12.68;;;;;;;7.14;100.00;99858.78;5329488;33;32408;-83
2022/11/24 14:18:47;;;;;;;22.30;11.10;;;;;;;7.10;100.00;99873.50;5332164;33;34032;-85
2022/11/24 14:21:50;;;;;;;23.12;11.48;;;;;;;7.05;99.74;99875.88;5337524;33;33751;-89
2022/11/24 14:24:56;;;;;;;21.58;11.38;;;;;;;6.93;100.00;99867.34;5323741;33;33649;-88
2022/11/24 14:27:59;;;;;;;21.27;10.60;;;;;;;6.88;100.00;99875.03;5330972;33;34266;-85
2022/11/24 14:31:19;;;;;;;25.67;12.10;;;;;;;6.82;100.00;99865.00;5327328;33;34134;-85
2022/11/24 14:34:24;;;;;;;20.62;11.38;;;;;;;6.78;100.00;99864.47;5331937;33;34713;-84
2022/11/24 14:37:27;;;;;;;26.95;11.93;;;;;;;6.65;100.00;99874.81;5332770;33;33497;-84
2022/11/24 14:40:36;;;;;;;24.40;10.60;;;;;;;6.58;100.00;99871.97;5345888;33;34270;-83
2022/11/24 14:43:39;;;;;;;21.48;11.12;;;;;;;6.59;100.00;99878.16;5335305;33;34916;-84
2022/11/24 14:46:42;;;;;;;27.35;11.38;;;;;;;6.55;100.00;99885.69;5329153;33;34578;-84
2022/11/24 14:49:45;;;;;;;24.30;12.80;;;;;;;6.50;100.00;99884.50;5336775;33;34502;-84
2022/11/24 14:52:55;;;;;;;24.77;12.00;;;;;;;6.47;100.00;99892.84;5326161;33;33862;-84
2022/11/24 14:56:21;;;;;;;22.77;11.75;;;;;;;6.39;100.00;99895.50;5324969;33;33873;-83
2022/11/24 14:59:26;;;;;;;25.42;11.27;;;;;;;6.37;100.00;99904.50;5323991;33;34152;-83
2022/11/24 15:02:43;;;;;;;24.33;11.20;;;;;;;6.34;100.00;99917.34;5318830;33;32454;-83
2022/11/24 15:05:59;;;;;;;21.52;10.57;;;;;;;6.29;100.00;99925.03;5341544;33;34564;-83
2022/11/24 15:09:03;;;;;;;27.73;13.35;;;;;;;6.28;100.00;99931.38;5313720;33;33395;-83
2022/11/24 15:12:11;;;;;;;22.87;11.90;;;;;;;6.21;100.00;99930.34;5323225;33;32401;-84
2022/11/24 15:15:14;;;;;;;25.77;12.48;;;;;;;6.21;100.00;99946.38;5339696;33;33812;-83
2022/11/24 15:18:42;;;;;;;25.67;12.15;;;;;;;6.17;100.00;99940.50;5335349;33;33833;-83
2022/11/24 15:21:45;;;;;;;29.75;12.88;;;;;;;6.14;100.00;99938.16;5326725;33;31892;-84
2022/11/24 15:24:52;;;;;;;21.98;11.30;;;;;;;6.13;100.00;99934.66;5332874;33;34361;-84
2022/11/24 15:27:55;;;;;;;25.05;12.35;;;;;;;6.11;100.00;99944.69;5334629;33;33450;-84
2022/11/24 15:31:03;;;;;;;26.55;11.48;;;;;;;6.08;100.00;99944.12;5356556;33;32956;-83
2022/11/24 15:34:11;;;;;;;23.87;11.48;;;;;;;6.04;100.00;99942.78;5327088;33;32339;-84
2022/11/24 15:37:14;;;;;;;25.27;12.82;;;;;;;6.02;100.00;99944.78;5340286;33;33880;-83
2022/11/24 15:40:17;;;;;;;24.23;11.23;;;;;;;5.94;100.00;99937.56;5343027;33;34979;-84
2022/11/24 15:43:35;;;;;;;24.40;12.13;;;;;;;5.89;100.00;99948.69;5335952;33;33952;-84
2022/11/24 15:46:38;;;;;;;24.65;11.20;;;;;;;5.85;100.00;99957.16;5327972;33;33955;-84
2022/11/24 15:49:41;;;;;;;26.30;12.35;;;;;;;5.73;100.00;99964.59;5330456;33;33737;-84
2022/11/24 15:52:45;;;;;;;22.42;11.48;;;;;;;5.67;100.00;99949.22;5315356;33;32125;-84
2022/11/24 15:55:49;;;;;;;25.62;11.60;;;;;;;5.68;100.00;99956.25;5332784;33;33782;-84
2022/11/24 15:58:53;;;;;;;25.88;12.18;;;;;;;5.69;100.00;99949.91;5314725;33;32123;-84
2022/11/24 16:01:55;;;;;;;30.15;12.13;;;;;;;5.57;100.00;99956.50;5342536;33;34381;-84
2022/11/24 16:04:58;;;;;;;26.92;12.98;;;;;;;5.49;100.00;99957.25;5326418;33;33778;-85
2022/11/24 16:08:01;;;;;;;25.42;12.30;;;;;;;5.40;100.00;99972.38;5323359;33;32974;-84
2022/11/24 16:11:04;;;;;;;24.35;11.65;;;;;;;5.34;100.00;99962.31;5327193;33;33202;-84
2022/11/24 16:14:06;;;;;;;24.05;11.75;;;;;;;5.38;100.00;99968.19;5326251;33;35718;-84
2022/11/24 16:17:09;;;;;;;25.67;12.15;;;;;;;5.33;100.00;99966.00;5327568;33;34330;-84
2022/11/24 16:20:12;;;;;;;25.45;12.48;;;;;;;5.26;100.00;99964.09;5328020;33;33973;-84
2022/11/24 16:23:15;;;;;;;29.77;13.95;;;;;;;5.18;100.00;99964.88;5325100;33;33983;-84
2022/11/24 16:26:18;;;;;;;28.87;12.25;;;;;;;5.22;100.00;99967.06;5324232;33;32316;-84
2022/11/24 16:29:22;;;;;;;25.75;12.32;;;;;;;5.23;100.00;99970.56;5325533;33;33966;-84
2022/11/24 16:32:25;;;;;;;26.30;12.27;;;;;;;5.20;100.00;99969.03;5324656;33;32199;-84
2022/11/24 16:35:27;;;;;;;32.70;13.10;;;;;;;5.23;100.00;99973.22;5325021;33;32459;-84
2022/11/24 16:38:30;;;;;;;26.62;12.25;;;;;;;5.26;100.00;99978.25;5325745;33;33913;-84
2022/11/24 16:41:33;;;;;;;29.20;13.07;;;;;;;5.26;100.00;99980.09;5327682;33;32514;-84
2022/11/24 16:44:36;;;;;;;28.02;12.60;;;;;;;5.18;100.00;99986.22;5333283;33;35114;-84
2022/11/24 16:47:40;;;;;;;29.12;13.02;;;;;;;5.11;100.00;99975.28;5324422;33;33011;-84
2022/11/24 16:50:43;;;;;;;28.50;12.50;;;;;;;5.05;100.00;99986.56;5325116;33;33933;-84
2022/11/24 16:53:46;;;;;;;27.45;12.37;;;;;;;5.12;100.00;99993.00;5325062;33;33785;-84
2022/11/24 16:56:49;;;;;;;28.42;12.95;;;;;;;5.10;100.00;99994.13;5324116;33;32738;-84
2022/11/24 16:59:52;;;;;;;24.40;12.70;;;;;;;5.03;100.00;99993.91;5324868;33;33792;-84
